createdAt,value
2023-09-13T00:01:54.280Z,97.00
2023-09-13T00:04:22.398Z,97.20
2023-09-13T00:06:50.764Z,97.30
2023-09-13T00:09:19.449Z,97.20
2023-09-13T00:11:47.436Z,97.30
2023-09-13T00:14:15.574Z,97.30
2023-09-13T00:16:43.622Z,97.30
2023-09-13T00:19:14.118Z,97.40
2023-09-13T00:21:44.189Z,97.30
2023-09-13T00:24:12.360Z,97.40
2023-09-13T00:26:40.426Z,97.40
2023-09-13T00:29:08.404Z,97.70
2023-09-13T00:31:36.498Z,97.60
2023-09-13T00:34:04.580Z,97.60
2023-09-13T00:36:33.976Z,97.30
2023-09-13T00:39:04.027Z,97.50
2023-09-13T00:41:33.139Z,97.40
2023-09-13T00:44:01.120Z,97.30
2023-09-13T00:46:29.870Z,97.30
2023-09-13T00:48:58.670Z,97.30
2023-09-13T00:51:27.094Z,97.40
2023-09-13T00:53:58.206Z,97.50
2023-09-13T00:56:28.215Z,97.50
2023-09-13T00:58:56.872Z,97.50
2023-09-13T01:01:24.975Z,97.50
2023-09-13T01:03:53.210Z,97.40
2023-09-13T01:06:21.294Z,97.60
2023-09-13T01:08:49.364Z,97.60
2023-09-13T01:11:18.877Z,97.60
2023-09-13T01:13:47.050Z,98.00
2023-09-13T01:16:31.686Z,98.10
2023-09-13T01:19:07.644Z,98.40
2023-09-13T01:22:07.178Z,98.70
2023-09-13T01:24:54.279Z,99.00
2023-09-13T01:27:39.046Z,98.90
2023-09-13T01:30:10.622Z,98.70
2023-09-13T01:32:38.704Z,98.70
2023-09-13T01:35:07.140Z,98.50
2023-09-13T01:37:35.331Z,98.40
2023-09-13T01:40:06.998Z,98.10
2023-09-13T01:42:37.194Z,98.20
2023-09-13T01:45:07.832Z,98.40
2023-09-13T01:47:37.944Z,98.50
2023-09-13T01:50:07.618Z,98.70
2023-09-13T01:52:35.981Z,98.50
2023-09-13T01:55:08.031Z,98.30
2023-09-13T01:57:36.248Z,98.20
2023-09-13T02:00:06.029Z,98.00
2023-09-13T02:02:34.200Z,98.00
2023-09-13T02:05:04.659Z,97.90
2023-09-13T02:07:33.452Z,97.90
2023-09-13T02:10:01.602Z,98.40
2023-09-13T02:12:29.693Z,98.60
2023-09-13T02:14:57.700Z,98.70
2023-09-13T02:17:24.861Z,98.50
2023-09-13T02:19:53.180Z,98.80
2023-09-13T02:22:22.592Z,99.30
2023-09-13T02:24:50.623Z,99.10
2023-09-13T02:27:18.608Z,99.30
2023-09-13T02:29:46.605Z,99.50
2023-09-13T02:32:14.650Z,99.60
2023-09-13T02:34:45.484Z,99.20
2023-09-13T02:37:13.487Z,99.30
2023-09-13T02:39:44.250Z,99.00
2023-09-13T02:42:12.415Z,98.90
2023-09-13T02:44:40.440Z,98.70
2023-09-13T02:47:08.497Z,98.90
2023-09-13T02:49:36.544Z,98.50
2023-09-13T02:52:04.892Z,98.50
2023-09-13T02:54:33.016Z,98.40
2023-09-13T02:57:02.965Z,98.20
2023-09-13T02:59:31.015Z,98.30
2023-09-13T03:01:59.183Z,98.20
2023-09-13T03:04:27.408Z,98.50
2023-09-13T03:06:55.554Z,98.70
2023-09-13T03:09:23.646Z,98.80
2023-09-13T03:11:51.595Z,99.20
2023-09-13T03:14:21.046Z,99.20
2023-09-13T03:16:49.031Z,99.30
2023-09-13T03:19:17.011Z,99.20
2023-09-13T03:21:46.062Z,99.20
2023-09-13T03:24:14.104Z,99.00
2023-09-13T03:26:42.348Z,99.30
2023-09-13T03:29:10.599Z,99.30
2023-09-13T03:31:40.125Z,99.60
2023-09-13T03:34:08.302Z,99.60
2023-09-13T03:36:36.462Z,99.70
2023-09-13T03:39:05.239Z,99.90
2023-09-13T03:41:33.883Z,99.90
2023-09-13T03:44:03.549Z,99.80
2023-09-13T03:46:31.554Z,99.80
2023-09-13T03:49:01.392Z,99.90
2023-09-13T03:51:29.368Z,99.60
2023-09-13T03:53:59.416Z,99.40
2023-09-13T03:56:27.440Z,99.70
2023-09-13T03:58:56.443Z,99.60
2023-09-13T04:01:25.389Z,99.90
2023-09-13T04:03:53.666Z,99.60
2023-09-13T04:06:27.312Z,99.80
2023-09-13T04:08:55.409Z,99.90
2023-09-13T04:11:23.374Z,99.80
2023-09-13T04:13:51.398Z,99.70
2023-09-13T04:16:19.401Z,99.80
2023-09-13T04:18:47.598Z,99.80
2023-09-13T04:21:15.645Z,99.90
2023-09-13T04:23:45.128Z,99.80
2023-09-13T04:26:14.400Z,99.90
2023-09-13T04:28:42.755Z,99.60
2023-09-13T04:31:10.792Z,99.80
2023-09-13T04:33:52.357Z,99.50
2023-09-13T04:36:20.600Z,99.20
2023-09-13T04:38:50.514Z,99.10
2023-09-13T04:41:19.083Z,99.40
2023-09-13T04:43:47.623Z,99.40
2023-09-13T04:46:16.166Z,99.10
2023-09-13T04:48:44.255Z,99.10
2023-09-13T04:51:12.842Z,99.50
2023-09-13T04:53:40.940Z,99.60
2023-09-13T04:56:10.573Z,99.70
2023-09-13T04:58:39.326Z,99.60
2023-09-13T05:01:07.890Z,99.30
2023-09-13T05:03:36.231Z,99.70
2023-09-13T05:06:06.888Z,99.40
2023-09-13T05:08:35.795Z,99.30
2023-09-13T05:11:04.388Z,99.50
2023-09-13T05:13:34.324Z,99.40
2023-09-13T05:16:02.497Z,99.70
2023-09-13T05:18:30.609Z,99.70
2023-09-13T05:20:58.647Z,99.90
2023-09-13T05:23:26.652Z,99.90
2023-09-13T05:25:56.879Z,99.90
2023-09-13T05:28:25.608Z,99.90
2023-09-13T05:30:55.647Z,99.90
2023-09-13T05:33:25.027Z,99.90
2023-09-13T05:35:53.245Z,99.90
2023-09-13T05:38:21.232Z,99.90
2023-09-13T05:40:49.246Z,99.90
2023-09-13T05:43:17.294Z,99.90
2023-09-13T05:45:45.672Z,99.90
2023-09-13T05:48:15.327Z,99.90
2023-09-13T05:50:43.385Z,99.90
2023-09-13T05:53:11.328Z,99.90
2023-09-13T05:55:39.473Z,99.90
2023-09-13T05:58:07.519Z,99.90
2023-09-13T06:00:35.470Z,99.90
2023-09-13T06:03:03.532Z,99.90
2023-09-13T06:05:32.933Z,99.90
2023-09-13T06:08:00.897Z,99.90
2023-09-13T06:10:28.977Z,99.90
2023-09-13T06:12:57.186Z,99.90
2023-09-13T06:15:25.197Z,99.90
2023-09-13T06:17:54.988Z,99.90
2023-09-13T06:20:23.100Z,99.90
2023-09-13T06:22:52.535Z,99.90
2023-09-13T06:25:20.772Z,99.90
2023-09-13T06:27:48.892Z,99.90
2023-09-13T06:30:16.952Z,99.90
2023-09-13T06:32:45.558Z,99.90
2023-09-13T06:35:16.688Z,99.90
2023-09-13T06:37:47.196Z,99.90
2023-09-13T06:40:17.735Z,99.90
2023-09-13T06:45:26.740Z,99.90
2023-09-13T06:47:56.187Z,99.70
2023-09-13T06:53:18.561Z,99.60
2023-09-13T06:55:48.020Z,99.70
2023-09-13T06:58:18.632Z,99.50
2023-09-13T07:03:22.561Z,99.70
2023-09-13T07:05:52.280Z,99.80
2023-09-13T07:08:20.293Z,99.50
2023-09-13T07:10:49.693Z,99.60
2023-09-13T07:13:17.713Z,99.70
2023-09-13T07:15:45.712Z,99.70
2023-09-13T07:18:13.878Z,99.40
2023-09-13T07:20:41.929Z,99.50
2023-09-13T07:23:10.318Z,99.30
2023-09-13T07:25:38.556Z,99.20
2023-09-13T07:28:08.158Z,99.40
2023-09-13T07:30:36.249Z,99.10
2023-09-13T07:33:05.249Z,99.30
2023-09-13T07:35:33.278Z,99.00
2023-09-13T07:38:01.318Z,98.90
2023-09-13T07:40:29.299Z,98.10
2023-09-13T07:42:57.298Z,97.00
2023-09-13T07:45:26.797Z,96.80
2023-09-13T07:47:54.855Z,97.00
2023-09-13T07:50:30.927Z,96.90
2023-09-13T07:55:30.502Z,96.40
2023-09-13T07:57:58.535Z,96.20
2023-09-13T08:00:27.969Z,96.00
2023-09-13T08:02:56.670Z,96.00
2023-09-13T08:05:24.773Z,96.10
2023-09-13T08:07:53.990Z,96.10
2023-09-13T08:10:23.039Z,96.10
2023-09-13T08:12:51.432Z,96.50
2023-09-13T08:15:22.668Z,96.30
2023-09-13T08:17:57.140Z,96.10
2023-09-13T08:20:25.390Z,95.80
2023-09-13T08:22:53.350Z,95.20
2023-09-13T08:25:21.353Z,95.00
2023-09-13T08:27:49.502Z,94.80
2023-09-13T08:30:19.913Z,94.70
2023-09-13T08:32:48.025Z,94.60
2023-09-13T08:35:17.595Z,94.40
2023-09-13T08:37:45.581Z,93.90
2023-09-13T08:40:14.134Z,93.80
2023-09-13T08:42:42.624Z,93.70
2023-09-13T08:45:11.958Z,94.10
2023-09-13T08:47:57.294Z,93.30
2023-09-13T08:50:30.075Z,92.50
2023-09-13T08:53:01.490Z,92.20
2023-09-13T08:55:30.127Z,92.90
2023-09-13T08:57:59.178Z,91.90
2023-09-13T09:00:30.728Z,92.10
2023-09-13T09:03:04.036Z,92.10
2023-09-13T09:05:34.537Z,91.40
2023-09-13T09:08:04.264Z,92.00
2023-09-13T09:10:33.335Z,91.30
2023-09-13T09:13:03.033Z,91.50
2023-09-13T09:15:33.930Z,91.60
2023-09-13T09:18:06.524Z,91.30
2023-09-13T09:20:39.181Z,91.30
2023-09-13T09:23:08.804Z,91.40
2023-09-13T09:25:40.248Z,91.30
2023-09-13T09:28:08.495Z,91.40
2023-09-13T09:30:36.524Z,91.70
2023-09-13T09:33:05.121Z,90.60
2023-09-13T09:35:33.307Z,90.50
2023-09-13T09:38:02.731Z,90.40
2023-09-13T09:40:38.289Z,90.00
2023-09-13T09:43:06.532Z,89.30
2023-09-13T09:45:34.679Z,89.30
2023-09-13T09:48:03.473Z,90.00
2023-09-13T09:50:33.789Z,89.80
2023-09-13T09:53:10.138Z,89.40
2023-09-13T09:55:38.712Z,88.20
2023-09-13T09:58:06.994Z,88.90
2023-09-13T10:00:46.670Z,88.60
2023-09-13T10:03:19.196Z,88.30
2023-09-13T10:05:55.016Z,90.00
2023-09-13T10:11:17.941Z,90.10
2023-09-13T10:13:46.971Z,90.00
2023-09-13T10:16:16.689Z,88.30
2023-09-13T10:18:49.742Z,88.50
2023-09-13T10:21:22.062Z,87.90
2023-09-13T10:23:54.910Z,89.70
2023-09-13T10:26:26.164Z,89.10
2023-09-13T10:28:58.376Z,88.00
2023-09-13T10:31:30.232Z,86.80
2023-09-13T10:34:06.571Z,84.30
2023-09-13T10:36:39.319Z,86.50
2023-09-13T10:39:13.723Z,85.60
2023-09-13T10:41:51.468Z,85.30
2023-09-13T10:44:20.692Z,84.90
2023-09-13T10:46:49.334Z,85.20
2023-09-13T10:49:17.488Z,81.50
2023-09-13T10:51:45.988Z,83.90
2023-09-13T10:54:16.308Z,84.90
2023-09-13T10:56:46.201Z,85.40
2023-09-13T10:59:18.470Z,86.60
2023-09-13T11:01:48.114Z,86.20
2023-09-13T11:04:16.839Z,87.00
2023-09-13T11:06:45.974Z,83.70
2023-09-13T11:09:15.371Z,84.30
2023-09-13T11:11:49.635Z,84.10
2023-09-13T11:14:20.510Z,82.30
2023-09-13T11:16:48.820Z,82.70
2023-09-13T11:19:17.220Z,80.80
2023-09-13T11:21:51.116Z,80.90
2023-09-13T11:24:54.014Z,81.30
2023-09-13T11:27:27.301Z,83.60
2023-09-13T11:30:00.141Z,82.70
2023-09-13T11:32:32.187Z,82.30
2023-09-13T11:35:01.944Z,82.70
2023-09-13T11:37:33.502Z,83.30
2023-09-13T11:40:12.798Z,83.20
2023-09-13T11:45:32.272Z,79.50
2023-09-13T11:48:03.828Z,79.30
2023-09-13T11:50:48.132Z,78.30
2023-09-13T11:53:21.384Z,79.10
2023-09-13T11:56:10.393Z,78.50
2023-09-13T11:58:57.661Z,80.10
2023-09-13T12:01:29.833Z,80.40
2023-09-13T12:06:44.696Z,80.60
2023-09-13T12:09:20.489Z,79.70
2023-09-13T12:11:56.914Z,80.70
2023-09-13T12:14:40.783Z,79.80
2023-09-13T12:17:15.878Z,81.60
2023-09-13T12:19:47.039Z,81.90
2023-09-13T12:22:15.861Z,82.60
2023-09-13T12:24:52.817Z,81.50
2023-09-13T12:27:20.983Z,83.00
2023-09-13T12:29:50.463Z,83.50
2023-09-13T12:32:18.650Z,83.10
2023-09-13T12:34:46.783Z,83.30
2023-09-13T12:37:16.301Z,82.70
2023-09-13T12:39:45.070Z,82.80
2023-09-13T12:42:13.385Z,82.10
2023-09-13T12:44:42.100Z,81.90
2023-09-13T12:47:11.563Z,82.10
2023-09-13T12:49:40.172Z,82.80
2023-09-13T12:52:08.276Z,83.40
2023-09-13T12:54:36.443Z,83.80
2023-09-13T12:57:05.014Z,83.70
2023-09-13T12:59:44.963Z,83.00
2023-09-13T13:02:19.392Z,82.90
2023-09-13T13:04:47.850Z,82.70
2023-09-13T13:07:23.156Z,83.50
2023-09-13T13:09:54.850Z,83.20
2023-09-13T13:12:22.946Z,83.40
2023-09-13T13:14:51.856Z,82.90
2023-09-13T13:17:22.355Z,83.60
2023-09-13T13:19:56.889Z,83.60
2023-09-13T13:22:27.443Z,83.70
2023-09-13T13:24:55.744Z,84.00
2023-09-13T13:27:23.887Z,84.70
2023-09-13T13:29:52.913Z,84.00
2023-09-13T13:32:22.355Z,84.70
2023-09-13T13:34:50.932Z,87.30
2023-09-13T13:37:20.632Z,90.50
2023-09-13T13:39:48.682Z,92.80
2023-09-13T13:42:16.753Z,94.50
2023-09-13T13:44:44.757Z,94.80
2023-09-13T13:47:13.121Z,96.10
2023-09-13T13:49:42.533Z,97.20
2023-09-13T13:52:10.592Z,97.90
2023-09-13T13:54:38.751Z,98.10
2023-09-13T13:57:07.023Z,99.00
2023-09-13T13:59:35.332Z,99.20
2023-09-13T14:02:05.019Z,99.90
2023-09-13T14:04:34.191Z,99.90
2023-09-13T14:07:03.917Z,99.90
2023-09-13T14:09:32.190Z,99.80
2023-09-13T14:12:00.325Z,99.90
2023-09-13T14:14:29.850Z,99.90
2023-09-13T14:16:57.972Z,99.90
2023-09-13T14:19:26.077Z,99.90
2023-09-13T14:21:54.158Z,99.90
2023-09-13T14:24:23.628Z,99.90
2023-09-13T14:26:51.690Z,99.60
2023-09-13T14:29:19.652Z,99.90
2023-09-13T14:31:47.713Z,99.80
2023-09-13T14:34:15.862Z,99.70
2023-09-13T14:36:43.885Z,99.50
2023-09-13T14:39:11.992Z,99.40
2023-09-13T14:41:42.249Z,99.50
2023-09-13T14:44:10.564Z,99.70
2023-09-13T14:46:38.674Z,99.60
2023-09-13T14:49:06.997Z,99.60
2023-09-13T14:51:35.400Z,99.40
2023-09-13T14:54:04.760Z,98.80
2023-09-13T14:56:32.854Z,98.70
2023-09-13T14:59:02.247Z,98.90
2023-09-13T15:01:30.414Z,99.20
2023-09-13T15:03:58.482Z,99.30
2023-09-13T15:06:26.598Z,99.50
2023-09-13T15:08:57.250Z,99.60
2023-09-13T15:11:25.378Z,99.20
2023-09-13T15:13:53.334Z,99.20
2023-09-13T15:16:22.740Z,99.00
2023-09-13T15:18:51.545Z,99.20
2023-09-13T15:21:19.695Z,99.00
2023-09-13T15:23:47.704Z,98.80
2023-09-13T15:26:15.707Z,98.90
2023-09-13T15:28:43.965Z,98.80
2023-09-13T15:31:12.537Z,98.30
2023-09-13T15:33:42.475Z,98.00
2023-09-13T15:36:10.537Z,98.20
2023-09-13T15:38:49.284Z,98.10
2023-09-13T15:41:21.421Z,97.80
2023-09-13T15:43:49.526Z,97.90
2023-09-13T15:46:17.589Z,97.90
2023-09-13T15:48:48.217Z,98.00
2023-09-13T15:51:16.817Z,98.20
2023-09-13T15:53:45.087Z,98.30
2023-09-13T15:56:13.168Z,98.40
2023-09-13T15:58:42.768Z,98.20
2023-09-13T16:01:11.901Z,98.30
2023-09-13T16:03:40.107Z,98.40
2023-09-13T16:06:09.533Z,98.50
2023-09-13T16:08:37.668Z,98.50
2023-09-13T16:11:05.692Z,98.70
2023-09-13T16:13:33.755Z,99.30
2023-09-13T16:16:02.053Z,99.20
2023-09-13T16:18:30.200Z,99.10
2023-09-13T16:20:59.022Z,99.40
2023-09-13T16:23:28.611Z,99.20
2023-09-13T16:25:56.559Z,99.40
2023-09-13T16:28:24.862Z,99.30
2023-09-13T16:30:52.994Z,99.30
2023-09-13T16:33:21.210Z,99.50
2023-09-13T16:35:49.294Z,99.70
2023-09-13T16:38:17.277Z,99.70
2023-09-13T16:40:46.665Z,99.90
2023-09-13T16:43:14.778Z,99.90
2023-09-13T16:45:42.983Z,99.90
2023-09-13T16:48:23.475Z,99.90
2023-09-13T16:50:52.014Z,98.90
2023-09-13T16:53:21.363Z,98.00
2023-09-13T16:55:50.727Z,97.10
2023-09-13T16:58:18.791Z,97.10
2023-09-13T17:00:48.791Z,97.20
2023-09-13T17:03:17.177Z,96.40
2023-09-13T17:05:45.308Z,96.50
2023-09-13T17:08:13.307Z,96.40
2023-09-13T17:10:41.371Z,96.60
2023-09-13T17:13:20.604Z,97.10
2023-09-13T17:15:49.002Z,97.40
2023-09-13T17:18:17.378Z,97.70
2023-09-13T17:20:45.700Z,98.20
2023-09-13T17:23:13.802Z,98.10
2023-09-13T17:25:41.951Z,98.20
2023-09-13T17:28:11.343Z,98.10
2023-09-13T17:30:39.411Z,98.00
2023-09-13T17:33:07.468Z,98.00
2023-09-13T17:35:36.353Z,98.30
2023-09-13T17:38:05.467Z,98.20
2023-09-13T17:40:33.443Z,98.40
2023-09-13T17:43:02.993Z,98.60
2023-09-13T17:45:33.973Z,98.20
2023-09-13T17:48:02.041Z,98.00
2023-09-13T17:50:30.035Z,97.60
2023-09-13T17:52:58.074Z,97.50
2023-09-13T17:55:26.085Z,97.30
2023-09-13T17:57:54.116Z,97.40
2023-09-13T18:00:22.945Z,97.00
2023-09-13T18:02:53.226Z,96.80
2023-09-13T18:05:21.357Z,97.10
2023-09-13T18:07:50.180Z,96.80
2023-09-13T18:10:18.656Z,96.70
2023-09-13T18:12:48.297Z,96.50
2023-09-13T18:15:16.559Z,96.40
2023-09-13T18:17:54.449Z,96.60
2023-09-13T18:20:27.468Z,96.40
2023-09-13T18:22:55.617Z,96.40
2023-09-13T18:25:23.856Z,96.30
2023-09-13T18:27:51.852Z,96.40
2023-09-13T18:30:20.152Z,96.50
2023-09-13T18:32:48.203Z,96.30
2023-09-13T18:35:17.015Z,96.40
2023-09-13T18:37:46.472Z,96.40
2023-09-13T18:40:14.493Z,96.50
2023-09-13T18:42:42.524Z,96.60
2023-09-13T18:45:11.174Z,96.40
2023-09-13T18:47:39.156Z,96.40
2023-09-13T18:50:08.573Z,96.40
2023-09-13T18:52:36.694Z,96.40
2023-09-13T18:55:06.630Z,96.50
2023-09-13T18:57:34.682Z,96.40
2023-09-13T19:00:04.189Z,96.60
2023-09-13T19:02:32.292Z,96.70
2023-09-13T19:05:00.440Z,96.80
2023-09-13T19:07:28.503Z,97.00
2023-09-13T19:09:56.550Z,97.00
2023-09-13T19:12:26.142Z,97.00
2023-09-13T19:14:54.178Z,97.10
2023-09-13T19:17:22.261Z,97.00
2023-09-13T19:19:50.280Z,97.10
2023-09-13T19:22:18.242Z,97.10
2023-09-13T19:24:56.539Z,97.20
2023-09-13T19:27:27.209Z,97.20
2023-09-13T19:29:55.271Z,97.30
2023-09-13T19:32:23.304Z,97.40
2023-09-13T19:34:51.358Z,97.40
2023-09-13T19:37:19.473Z,97.60
2023-09-13T19:39:47.625Z,98.00
2023-09-13T19:42:15.754Z,98.30
2023-09-13T19:44:45.123Z,98.40
2023-09-13T19:47:13.998Z,98.50
2023-09-13T19:49:41.980Z,98.90
2023-09-13T19:52:10.017Z,98.90
2023-09-13T19:54:39.022Z,99.10
2023-09-13T19:57:08.285Z,99.20
2023-09-13T19:59:38.322Z,99.50
2023-09-13T20:02:08.144Z,99.70
2023-09-13T20:04:36.244Z,99.90
2023-09-13T20:07:04.349Z,99.90
2023-09-13T20:09:32.401Z,99.90
2023-09-13T20:12:04.840Z,99.90
2023-09-13T20:14:32.922Z,99.90
2023-09-13T20:17:00.940Z,99.90
2023-09-13T20:19:30.567Z,99.90
2023-09-13T20:21:58.638Z,99.90
2023-09-13T20:24:26.838Z,99.90
2023-09-13T20:26:55.154Z,99.90
2023-09-13T20:29:27.133Z,99.90
2023-09-13T20:31:55.270Z,99.90
2023-09-13T20:34:24.590Z,99.90
2023-09-13T20:36:54.030Z,99.90
2023-09-13T20:39:22.151Z,99.90
2023-09-13T20:41:50.229Z,99.90
2023-09-13T20:44:18.235Z,99.90
2023-09-13T20:46:47.225Z,99.90
2023-09-13T20:49:15.364Z,99.90
2023-09-13T20:51:43.431Z,99.90
2023-09-13T20:54:12.788Z,99.90
2023-09-13T20:56:40.735Z,99.90
2023-09-13T20:59:08.702Z,99.90
2023-09-13T21:01:36.754Z,99.90
2023-09-13T21:04:05.434Z,99.90
2023-09-13T21:06:33.495Z,99.90
2023-09-13T21:09:01.510Z,99.90
2023-09-13T21:11:30.850Z,99.90
2023-09-13T21:13:58.848Z,99.90
2023-09-13T21:16:26.918Z,99.90
2023-09-13T21:18:55.695Z,99.90
2023-09-13T21:21:23.775Z,99.90
2023-09-13T21:23:51.791Z,99.90
2023-09-13T21:26:19.763Z,99.90
2023-09-13T21:28:49.372Z,99.90
2023-09-13T21:31:17.801Z,99.90
2023-09-13T21:33:46.910Z,99.90
2023-09-13T21:36:15.825Z,99.90
2023-09-13T21:38:44.513Z,99.90
2023-09-13T21:41:12.864Z,99.90
2023-09-13T21:43:41.205Z,99.90
2023-09-13T21:46:10.647Z,99.90
2023-09-13T21:48:41.835Z,99.90
2023-09-13T21:51:11.755Z,99.90
2023-09-13T21:53:40.112Z,99.90
2023-09-13T21:56:09.670Z,99.90
2023-09-13T21:58:37.919Z,99.90
2023-09-13T22:01:06.080Z,99.90
2023-09-13T22:03:35.672Z,99.90
2023-09-13T22:06:03.949Z,99.90
2023-09-13T22:08:32.496Z,99.90
2023-09-13T22:11:05.477Z,99.90
2023-09-13T22:13:33.696Z,99.90
2023-09-13T22:16:01.937Z,99.90
2023-09-13T22:18:30.534Z,99.90
2023-09-13T22:21:03.010Z,99.90
2023-09-13T22:23:32.578Z,99.90
2023-09-13T22:26:00.854Z,99.90
2023-09-13T22:28:29.255Z,99.90
2023-09-13T22:31:01.178Z,99.90
2023-09-13T22:33:31.026Z,99.90
2023-09-13T22:36:04.926Z,99.90
2023-09-13T22:38:33.057Z,99.90
2023-09-13T22:41:02.556Z,99.90
2023-09-13T22:43:30.649Z,99.90
2023-09-13T22:45:58.818Z,99.90
2023-09-13T22:48:27.115Z,99.90
2023-09-13T22:50:55.395Z,99.90
2023-09-13T22:53:24.867Z,99.90
2023-09-13T22:55:53.900Z,99.90
2023-09-13T22:58:22.386Z,99.90
2023-09-13T23:00:50.498Z,99.90
2023-09-13T23:03:30.198Z,99.90
2023-09-13T23:06:06.861Z,99.90
2023-09-13T23:08:38.898Z,99.90
2023-09-13T23:11:07.385Z,99.90
2023-09-13T23:13:35.897Z,99.90
2023-09-13T23:16:05.789Z,99.90
2023-09-13T23:18:37.135Z,99.90
2023-09-13T23:21:05.612Z,99.90
2023-09-13T23:23:34.359Z,99.90
2023-09-13T23:26:05.656Z,99.90
2023-09-13T23:28:34.888Z,99.90
2023-09-13T23:31:07.487Z,99.90
2023-09-13T23:33:36.594Z,99.90
2023-09-13T23:36:05.663Z,99.90
2023-09-13T23:38:34.125Z,99.90
2023-09-13T23:41:06.874Z,99.90
2023-09-13T23:43:35.348Z,99.90
2023-09-13T23:46:04.811Z,99.90
2023-09-13T23:48:33.908Z,99.90
2023-09-13T23:51:04.122Z,99.90
2023-09-13T23:53:32.230Z,99.90
2023-09-13T23:56:00.615Z,99.90
2023-09-13T23:58:30.168Z,99.90
